createdAt,value
2016-12-28T00:00:03.307Z,1037.25
2016-12-28T00:00:43.890Z,1037.27
2016-12-28T00:01:24.461Z,1037.27
2016-12-28T00:02:05.009Z,1037.29
2016-12-28T00:02:45.584Z,1037.3
2016-12-28T00:03:26.164Z,1037.3
2016-12-28T00:04:06.770Z,1037.29
2016-12-28T00:04:47.357Z,1037.33
2016-12-28T00:05:27.941Z,1037.31
2016-12-28T00:06:08.518Z,1037.3
2016-12-28T00:06:49.076Z,1037.29
2016-12-28T00:07:29.653Z,1037.3
2016-12-28T00:08:10.232Z,1037.29
2016-12-28T00:08:50.809Z,1037.3
2016-12-28T00:09:31.392Z,1037.32
2016-12-28T00:10:11.978Z,1037.34
2016-12-28T00:10:52.531Z,1037.34
2016-12-28T00:11:33.099Z,1037.34
2016-12-28T00:12:13.675Z,1037.36
2016-12-28T00:12:54.240Z,1037.34
2016-12-28T00:13:34.825Z,1037.38
2016-12-28T00:14:15.397Z,1037.37
2016-12-28T00:14:55.978Z,1037.4
2016-12-28T00:15:36.551Z,1037.38
2016-12-28T00:16:17.127Z,1037.37
2016-12-28T00:16:57.699Z,1037.41
2016-12-28T00:17:38.278Z,1037.39
2016-12-28T00:18:18.846Z,1037.39
2016-12-28T00:18:59.431Z,1037.38
2016-12-28T00:19:40.001Z,1037.4
2016-12-28T00:20:20.578Z,1037.41
2016-12-28T00:21:01.160Z,1037.43
2016-12-28T00:21:41.741Z,1037.47
2016-12-28T00:22:22.317Z,1037.43
2016-12-28T00:23:02.887Z,1037.46
2016-12-28T00:23:43.459Z,1037.48
2016-12-28T00:24:24.039Z,1037.49
2016-12-28T00:25:04.609Z,1037.5
2016-12-28T00:25:45.188Z,1037.51
2016-12-28T00:26:25.750Z,1037.54
2016-12-28T00:27:06.336Z,1037.52
2016-12-28T00:27:46.915Z,1037.57
2016-12-28T00:28:27.493Z,1037.52
2016-12-28T00:29:08.049Z,1037.54
2016-12-28T00:29:48.603Z,1037.55
2016-12-28T00:30:29.183Z,1037.52
2016-12-28T00:31:09.744Z,1037.52
2016-12-28T00:31:50.317Z,1037.5
2016-12-28T00:32:30.888Z,1037.48
2016-12-28T00:33:11.479Z,1037.47
2016-12-28T00:33:52.067Z,1037.46
2016-12-28T00:34:32.649Z,1037.43
2016-12-28T00:35:13.225Z,1037.42
2016-12-28T00:35:53.797Z,1037.41
2016-12-28T00:36:34.389Z,1037.42
2016-12-28T00:37:14.954Z,1037.44
2016-12-28T00:37:55.540Z,1037.47
2016-12-28T00:38:36.115Z,1037.46
2016-12-28T00:39:16.690Z,1037.46
2016-12-28T00:39:57.264Z,1037.48
2016-12-28T00:40:37.846Z,1037.54
2016-12-28T00:41:18.443Z,1037.61
2016-12-28T00:41:59.021Z,1037.59
2016-12-28T00:42:39.602Z,1037.63
2016-12-28T00:43:20.180Z,1037.62
2016-12-28T00:44:00.751Z,1037.66
2016-12-28T00:44:41.336Z,1037.7
2016-12-28T00:45:21.914Z,1037.72
2016-12-28T00:46:02.496Z,1037.72
2016-12-28T00:46:43.068Z,1037.74
2016-12-28T00:47:23.631Z,1037.71
2016-12-28T00:48:04.208Z,1037.7
2016-12-28T00:48:44.783Z,1037.75
2016-12-28T00:49:25.351Z,1037.69
2016-12-28T00:50:05.927Z,1037.73
2016-12-28T00:50:46.496Z,1037.72
2016-12-28T00:51:27.073Z,1037.69
2016-12-28T00:52:07.642Z,1037.68
2016-12-28T00:52:48.223Z,1037.71
2016-12-28T00:53:28.811Z,1037.74
2016-12-28T00:54:09.392Z,1037.7
2016-12-28T00:54:49.955Z,1037.63
2016-12-28T00:55:30.536Z,1037.65
2016-12-28T00:56:11.108Z,1037.64
2016-12-28T00:56:51.680Z,1037.62
2016-12-28T00:57:32.254Z,1037.66
2016-12-28T00:58:12.837Z,1037.7
2016-12-28T00:58:53.417Z,1037.67
2016-12-28T00:59:33.985Z,1037.7
2016-12-28T01:00:14.562Z,1037.69
2016-12-28T01:00:55.126Z,1037.7
2016-12-28T01:01:35.700Z,1037.69
2016-12-28T01:02:16.277Z,1037.65
2016-12-28T01:02:56.848Z,1037.64
2016-12-28T01:03:37.427Z,1037.61
2016-12-28T01:04:18.010Z,1037.6
2016-12-28T01:04:58.589Z,1037.6
2016-12-28T01:05:39.161Z,1037.55
2016-12-28T01:06:19.757Z,1037.53
2016-12-28T01:07:00.334Z,1037.56
2016-12-28T01:07:40.914Z,1037.6
2016-12-28T01:08:21.478Z,1037.58
2016-12-28T01:09:02.052Z,1037.57
2016-12-28T01:09:42.618Z,1037.62
2016-12-28T01:10:23.190Z,1037.58
2016-12-28T01:11:03.777Z,1037.61
2016-12-28T01:11:44.355Z,1037.54
2016-12-28T01:12:24.935Z,1037.53
2016-12-28T01:13:05.520Z,1037.58
2016-12-28T01:13:46.101Z,1037.55
2016-12-28T01:14:26.669Z,1037.55
2016-12-28T01:15:07.243Z,1037.53
2016-12-28T01:15:47.817Z,1037.57
2016-12-28T01:16:28.398Z,1037.55
2016-12-28T01:17:08.972Z,1037.53
2016-12-28T01:17:49.554Z,1037.53
2016-12-28T01:18:30.124Z,1037.53
2016-12-28T01:19:10.701Z,1037.51
2016-12-28T01:19:51.270Z,1037.52
2016-12-28T01:20:31.838Z,1037.5
2016-12-28T01:21:12.419Z,1037.55
2016-12-28T01:21:52.996Z,1037.52
2016-12-28T01:22:33.564Z,1037.53
2016-12-28T01:23:14.131Z,1037.57
2016-12-28T01:23:54.712Z,1037.57
2016-12-28T01:24:35.280Z,1037.55
2016-12-28T01:25:15.848Z,1037.52
2016-12-28T01:25:56.415Z,1037.52
2016-12-28T01:26:36.980Z,1037.53
2016-12-28T01:27:17.563Z,1037.51
2016-12-28T01:27:58.134Z,1037.52
2016-12-28T01:28:38.721Z,1037.53
2016-12-28T01:29:19.286Z,1037.5
2016-12-28T01:29:59.875Z,1037.5
2016-12-28T01:30:40.452Z,1037.55
2016-12-28T01:31:21.031Z,1037.54
2016-12-28T01:32:01.607Z,1037.55
2016-12-28T01:32:42.173Z,1037.53
2016-12-28T01:33:22.749Z,1037.58
2016-12-28T01:34:03.321Z,1037.52
2016-12-28T01:34:43.897Z,1037.57
2016-12-28T01:35:24.474Z,1037.53
2016-12-28T01:36:05.048Z,1037.55
2016-12-28T01:36:45.616Z,1037.55
2016-12-28T01:37:26.189Z,1037.52
2016-12-28T01:38:06.773Z,1037.51
2016-12-28T01:38:47.350Z,1037.52
2016-12-28T01:39:27.928Z,1037.54
2016-12-28T01:40:08.512Z,1037.48
2016-12-28T01:40:49.097Z,1037.45
2016-12-28T01:41:29.661Z,1037.43
2016-12-28T01:42:10.235Z,1037.37
2016-12-28T01:42:50.809Z,1037.32
2016-12-28T01:43:31.376Z,1037.28
2016-12-28T01:44:11.971Z,1037.28
2016-12-28T01:44:52.551Z,1037.22
2016-12-28T01:45:33.135Z,1037.24
2016-12-28T01:46:13.706Z,1037.21
2016-12-28T01:46:54.284Z,1037.22
2016-12-28T01:47:34.892Z,1037.23
2016-12-28T01:48:15.472Z,1037.25
2016-12-28T01:48:56.047Z,1037.24
2016-12-28T01:49:36.619Z,1037.25
2016-12-28T01:50:17.201Z,1037.19
2016-12-28T01:50:57.769Z,1037.18
2016-12-28T01:51:38.354Z,1037.21
2016-12-28T01:52:18.909Z,1037.22
2016-12-28T01:52:59.475Z,1037.22
2016-12-28T01:53:40.055Z,1037.19
2016-12-28T01:54:20.625Z,1037.23
2016-12-28T01:55:01.192Z,1037.21
2016-12-28T01:55:41.756Z,1037.23
2016-12-28T01:56:22.336Z,1037.21
2016-12-28T01:57:02.910Z,1037.2
2016-12-28T01:57:43.487Z,1037.21
2016-12-28T01:58:24.079Z,1037.17
2016-12-28T01:59:04.652Z,1037.17
2016-12-28T01:59:45.229Z,1037.2
2016-12-28T02:00:25.809Z,1037.21
2016-12-28T02:01:06.362Z,1037.25
2016-12-28T02:01:46.960Z,1037.28
2016-12-28T02:02:27.534Z,1037.31
2016-12-28T02:03:08.104Z,1037.35
2016-12-28T02:03:48.683Z,1037.36
2016-12-28T02:04:29.258Z,1037.37
2016-12-28T02:05:09.843Z,1037.39
2016-12-28T02:05:50.408Z,1037.35
2016-12-28T02:06:30.983Z,1037.37
2016-12-28T02:07:11.574Z,1037.36
2016-12-28T02:07:52.161Z,1037.38
2016-12-28T02:08:32.735Z,1037.38
2016-12-28T02:09:13.312Z,1037.32
2016-12-28T02:09:53.903Z,1037.33
2016-12-28T02:10:34.489Z,1037.32
2016-12-28T02:11:15.049Z,1037.32
2016-12-28T02:11:55.603Z,1037.34
2016-12-28T02:12:36.188Z,1037.37
2016-12-28T02:13:16.761Z,1037.34
2016-12-28T02:13:57.355Z,1037.36
2016-12-28T02:14:37.933Z,1037.29
2016-12-28T02:15:18.506Z,1037.31
2016-12-28T02:15:59.078Z,1037.3
2016-12-28T02:16:39.657Z,1037.28
2016-12-28T02:17:20.229Z,1037.26
2016-12-28T02:18:00.793Z,1037.2
2016-12-28T02:18:41.368Z,1037.17
2016-12-28T02:19:21.946Z,1037.21
2016-12-28T02:20:02.507Z,1037.16
2016-12-28T02:20:43.082Z,1037.14
2016-12-28T02:21:23.661Z,1037.15
2016-12-28T02:22:04.229Z,1037.15
2016-12-28T02:22:44.801Z,1037.11
2016-12-28T02:23:25.375Z,1037.1
2016-12-28T02:24:05.964Z,1037.18
2016-12-28T02:24:46.544Z,1037.19
2016-12-28T02:25:27.111Z,1037.2
2016-12-28T02:26:07.681Z,1037.21
2016-12-28T02:26:48.253Z,1037.28
2016-12-28T02:27:28.813Z,1037.26
2016-12-28T02:28:09.378Z,1037.25
2016-12-28T02:28:49.985Z,1037.24
2016-12-28T02:29:30.563Z,1037.21
2016-12-28T02:30:11.124Z,1037.18
2016-12-28T02:30:51.700Z,1037.16
2016-12-28T02:31:32.271Z,1037.1
2016-12-28T02:32:19.513Z,1037.16
2016-12-28T02:33:00.294Z,1037.13
2016-12-28T02:33:40.867Z,1037.11
2016-12-28T02:34:21.444Z,1037.13
2016-12-28T02:35:02.021Z,1037.09
2016-12-28T02:35:42.599Z,1037.08
2016-12-28T02:36:23.173Z,1037.12
2016-12-28T02:37:03.734Z,1037.11
2016-12-28T02:37:44.309Z,1037.1
2016-12-28T02:38:24.895Z,1037.12
2016-12-28T02:39:05.473Z,1037.14
2016-12-28T02:39:46.026Z,1037.04
2016-12-28T02:40:26.600Z,1037.12
2016-12-28T02:41:07.183Z,1037.09
2016-12-28T02:41:47.749Z,1037.09
2016-12-28T02:42:28.344Z,1037.12
2016-12-28T02:43:08.888Z,1037.16
2016-12-28T02:43:49.453Z,1037.13
2016-12-28T02:44:30.033Z,1037.12
2016-12-28T02:45:10.618Z,1037.13
2016-12-28T02:45:51.180Z,1037.11
2016-12-28T02:46:31.760Z,1037.14
2016-12-28T02:47:12.335Z,1037.11
2016-12-28T02:47:52.907Z,1037.09
2016-12-28T02:48:33.502Z,1037.1
2016-12-28T02:49:14.059Z,1037.14
2016-12-28T02:49:54.634Z,1037.13
2016-12-28T02:50:35.212Z,1037.12
2016-12-28T02:51:15.783Z,1037.15
2016-12-28T02:51:56.366Z,1037.12
2016-12-28T02:52:36.945Z,1037.12
2016-12-28T02:53:17.513Z,1037.15
2016-12-28T02:53:58.090Z,1037.11
2016-12-28T02:54:38.653Z,1037.11
2016-12-28T02:55:19.229Z,1037.11
2016-12-28T02:55:59.807Z,1037.08
2016-12-28T02:56:40.395Z,1037.11
2016-12-28T02:57:20.966Z,1037.08
2016-12-28T02:58:01.544Z,1037.1
2016-12-28T02:58:42.133Z,1037.1
2016-12-28T02:59:22.704Z,1037.12
2016-12-28T03:00:03.269Z,1037.09
2016-12-28T03:00:43.844Z,1037.09
2016-12-28T03:01:24.416Z,1037.1
2016-12-28T03:02:04.989Z,1037.08
2016-12-28T03:02:45.563Z,1037.05
2016-12-28T03:03:26.142Z,1037.05
2016-12-28T03:04:06.711Z,1037.06
2016-12-28T03:04:47.281Z,1037.01
2016-12-28T03:05:27.863Z,1037.01
2016-12-28T03:06:08.433Z,1037.02
2016-12-28T03:06:49.016Z,1037.03
2016-12-28T03:07:29.587Z,1037.05
2016-12-28T03:08:10.164Z,1037.03
2016-12-28T03:08:50.739Z,1037.01
2016-12-28T03:09:31.316Z,1037.05
2016-12-28T03:10:11.895Z,1037.04
2016-12-28T03:10:52.467Z,1037.09
2016-12-28T03:11:33.039Z,1037.08
2016-12-28T03:12:13.609Z,1037.06
2016-12-28T03:12:54.182Z,1037.07
2016-12-28T03:13:34.758Z,1037.04
2016-12-28T03:14:15.341Z,1037.02
2016-12-28T03:14:55.912Z,1037
2016-12-28T03:15:36.499Z,1036.98
2016-12-28T03:16:17.069Z,1037.02
2016-12-28T03:16:57.648Z,1036.99
2016-12-28T03:17:38.225Z,1036.94
2016-12-28T03:18:18.805Z,1036.94
2016-12-28T03:18:59.380Z,1036.92
2016-12-28T03:19:39.950Z,1036.92
2016-12-28T03:20:20.536Z,1036.92
2016-12-28T03:21:01.110Z,1036.91
2016-12-28T03:21:41.681Z,1036.9
2016-12-28T03:22:22.256Z,1036.89
2016-12-28T03:23:02.834Z,1036.87
2016-12-28T03:23:43.407Z,1036.86
2016-12-28T03:24:23.981Z,1036.88
2016-12-28T03:25:04.557Z,1036.84
2016-12-28T03:25:45.122Z,1036.85
2016-12-28T03:26:25.708Z,1036.79
2016-12-28T03:27:06.307Z,1036.83
2016-12-28T03:27:46.854Z,1036.8
2016-12-28T03:28:27.417Z,1036.81
2016-12-28T03:29:08.003Z,1036.8
2016-12-28T03:29:48.581Z,1036.78
2016-12-28T03:30:29.144Z,1036.86
2016-12-28T03:31:09.723Z,1036.88
2016-12-28T03:31:50.302Z,1036.89
2016-12-28T03:32:30.872Z,1036.85
2016-12-28T03:33:11.448Z,1036.84
2016-12-28T03:33:52.021Z,1036.84
2016-12-28T03:34:32.590Z,1036.83
2016-12-28T03:35:13.168Z,1036.81
2016-12-28T03:35:53.744Z,1036.83
2016-12-28T03:36:34.298Z,1036.83
2016-12-28T03:37:14.874Z,1036.77
2016-12-28T03:37:55.454Z,1036.79
2016-12-28T03:38:36.029Z,1036.77
2016-12-28T03:39:16.623Z,1036.74
2016-12-28T03:39:57.181Z,1036.72
2016-12-28T03:40:37.762Z,1036.66
2016-12-28T03:41:18.332Z,1036.66
2016-12-28T03:41:58.904Z,1036.66
2016-12-28T03:42:39.488Z,1036.6
2016-12-28T03:43:20.061Z,1036.6
2016-12-28T03:44:00.643Z,1036.65
2016-12-28T03:44:41.223Z,1036.66
2016-12-28T03:45:21.801Z,1036.7
2016-12-28T03:46:02.369Z,1036.68
2016-12-28T03:46:42.948Z,1036.74
2016-12-28T03:47:23.524Z,1036.71
2016-12-28T03:48:04.108Z,1036.72
2016-12-28T03:48:44.686Z,1036.69
2016-12-28T03:49:25.263Z,1036.68
2016-12-28T03:50:05.842Z,1036.64
2016-12-28T03:50:46.421Z,1036.64
2016-12-28T03:51:26.991Z,1036.65
2016-12-28T03:52:07.557Z,1036.61
2016-12-28T03:52:48.135Z,1036.62
2016-12-28T03:53:28.701Z,1036.6
2016-12-28T03:54:09.295Z,1036.61
2016-12-28T03:54:49.874Z,1036.58
2016-12-28T03:55:30.440Z,1036.56
2016-12-28T03:56:11.022Z,1036.61
2016-12-28T03:56:51.608Z,1036.59
2016-12-28T03:57:32.176Z,1036.6
2016-12-28T03:58:12.770Z,1036.61
2016-12-28T03:58:53.348Z,1036.59
2016-12-28T03:59:33.932Z,1036.58
2016-12-28T04:00:14.503Z,1036.61
2016-12-28T04:00:55.084Z,1036.58
2016-12-28T04:01:35.686Z,1036.62
2016-12-28T04:02:16.260Z,1036.63
2016-12-28T04:02:56.842Z,1036.64
2016-12-28T04:03:37.419Z,1036.63
2016-12-28T04:04:18.009Z,1036.64
2016-12-28T04:04:58.584Z,1036.63
2016-12-28T04:05:39.163Z,1036.68
2016-12-28T04:06:19.743Z,1036.68
2016-12-28T04:07:00.302Z,1036.66
2016-12-28T04:07:40.883Z,1036.7
2016-12-28T04:08:21.464Z,1036.63
2016-12-28T04:09:02.045Z,1036.67
2016-12-28T04:09:42.622Z,1036.65
2016-12-28T04:10:23.213Z,1036.66
2016-12-28T04:11:03.781Z,1036.68
2016-12-28T04:11:44.365Z,1036.68
2016-12-28T04:12:24.934Z,1036.68
2016-12-28T04:13:05.511Z,1036.69
2016-12-28T04:13:46.076Z,1036.69
2016-12-28T04:14:26.644Z,1036.7
2016-12-28T04:15:07.211Z,1036.68
2016-12-28T04:15:47.797Z,1036.7
2016-12-28T04:16:28.378Z,1036.72
2016-12-28T04:17:08.947Z,1036.71
2016-12-28T04:17:49.526Z,1036.73
2016-12-28T04:18:30.094Z,1036.74
2016-12-28T04:19:10.697Z,1036.72
2016-12-28T04:19:51.257Z,1036.71
2016-12-28T04:20:31.825Z,1036.71
2016-12-28T04:21:12.391Z,1036.74
2016-12-28T04:21:52.978Z,1036.74
2016-12-28T04:22:33.554Z,1036.74
2016-12-28T04:23:14.143Z,1036.69
2016-12-28T04:23:54.725Z,1036.7
2016-12-28T04:24:35.307Z,1036.71
2016-12-28T04:25:15.876Z,1036.72
2016-12-28T04:25:56.455Z,1036.71
2016-12-28T04:26:37.040Z,1036.69
2016-12-28T04:27:17.615Z,1036.65
2016-12-28T04:27:58.178Z,1036.66
2016-12-28T04:28:38.770Z,1036.68
2016-12-28T04:29:19.343Z,1036.68
2016-12-28T04:29:59.925Z,1036.69
2016-12-28T04:30:40.500Z,1036.71
2016-12-28T04:31:21.074Z,1036.72
2016-12-28T04:32:01.646Z,1036.73
2016-12-28T04:32:42.222Z,1036.73
2016-12-28T04:33:22.798Z,1036.71
2016-12-28T04:34:03.361Z,1036.74
2016-12-28T04:34:43.950Z,1036.7
2016-12-28T04:35:24.516Z,1036.69
2016-12-28T04:36:05.086Z,1036.74
2016-12-28T04:36:45.639Z,1036.7
2016-12-28T04:37:26.230Z,1036.66
2016-12-28T04:38:06.807Z,1036.68
2016-12-28T04:38:47.409Z,1036.7
2016-12-28T04:39:27.988Z,1036.72
2016-12-28T04:40:08.561Z,1036.64
2016-12-28T04:40:49.137Z,1036.64
2016-12-28T04:41:29.709Z,1036.62
2016-12-28T04:42:10.283Z,1036.61
2016-12-28T04:42:50.875Z,1036.63
2016-12-28T04:43:31.444Z,1036.61
2016-12-28T04:44:12.020Z,1036.62
2016-12-28T04:44:52.591Z,1036.62
2016-12-28T04:45:33.166Z,1036.58
2016-12-28T04:46:13.752Z,1036.56
2016-12-28T04:46:54.330Z,1036.57
2016-12-28T04:47:34.910Z,1036.52
2016-12-28T04:48:15.485Z,1036.56
2016-12-28T04:48:56.058Z,1036.52
2016-12-28T04:49:36.642Z,1036.53
2016-12-28T04:50:17.221Z,1036.53
2016-12-28T04:50:57.798Z,1036.52
2016-12-28T04:51:38.376Z,1036.51
2016-12-28T04:52:18.942Z,1036.53
2016-12-28T04:52:59.539Z,1036.51
2016-12-28T04:53:40.112Z,1036.52
2016-12-28T04:54:20.667Z,1036.53
2016-12-28T04:55:01.251Z,1036.55
2016-12-28T04:55:41.837Z,1036.55
2016-12-28T04:56:22.416Z,1036.58
2016-12-28T04:57:02.990Z,1036.58
2016-12-28T04:57:43.571Z,1036.58
2016-12-28T04:58:24.145Z,1036.62
2016-12-28T04:59:04.719Z,1036.59
2016-12-28T04:59:45.271Z,1036.6
2016-12-28T05:00:25.828Z,1036.59
2016-12-28T05:01:06.399Z,1036.58
2016-12-28T05:01:46.977Z,1036.6
2016-12-28T05:02:27.550Z,1036.62
2016-12-28T05:03:08.107Z,1036.64
2016-12-28T05:03:48.675Z,1036.67
2016-12-28T05:04:29.239Z,1036.7
2016-12-28T05:05:09.806Z,1036.69
2016-12-28T05:05:50.381Z,1036.69
2016-12-28T05:06:30.967Z,1036.68
2016-12-28T05:07:11.529Z,1036.7
2016-12-28T05:07:52.080Z,1036.68
2016-12-28T05:08:32.644Z,1036.71
2016-12-28T05:09:13.226Z,1036.71
2016-12-28T05:09:53.799Z,1036.73
2016-12-28T05:10:34.378Z,1036.72
2016-12-28T05:11:14.945Z,1036.72
2016-12-28T05:11:55.544Z,1036.77
2016-12-28T05:12:36.123Z,1036.72
2016-12-28T05:13:16.713Z,1036.73
2016-12-28T05:13:57.285Z,1036.74
2016-12-28T05:14:37.876Z,1036.73
2016-12-28T05:15:18.432Z,1036.69
2016-12-28T05:15:58.995Z,1036.67
2016-12-28T05:16:39.570Z,1036.72
2016-12-28T05:17:20.149Z,1036.71
2016-12-28T05:18:00.721Z,1036.7
2016-12-28T05:18:41.292Z,1036.7
2016-12-28T05:19:21.847Z,1036.71
2016-12-28T05:20:02.414Z,1036.75
2016-12-28T05:20:42.992Z,1036.72
2016-12-28T05:21:23.563Z,1036.71
2016-12-28T05:22:04.127Z,1036.73
2016-12-28T05:22:44.711Z,1036.73
2016-12-28T05:23:25.295Z,1036.72
2016-12-28T05:24:05.880Z,1036.7
2016-12-28T05:24:46.457Z,1036.72
2016-12-28T05:25:27.015Z,1036.75
2016-12-28T05:26:07.601Z,1036.75
2016-12-28T05:26:48.173Z,1036.77
2016-12-28T05:27:28.761Z,1036.82
2016-12-28T05:28:09.334Z,1036.83
2016-12-28T05:28:49.909Z,1036.8
2016-12-28T05:29:30.477Z,1036.83
2016-12-28T05:30:11.050Z,1036.89
2016-12-28T05:30:51.616Z,1036.92
2016-12-28T05:31:32.191Z,1036.87
2016-12-28T05:32:12.770Z,1036.9
2016-12-28T05:32:53.340Z,1036.92
2016-12-28T05:33:33.909Z,1036.96
2016-12-28T05:34:14.495Z,1036.98
2016-12-28T05:34:55.073Z,1037.04
2016-12-28T05:35:35.652Z,1037.02
2016-12-28T05:36:16.214Z,1037.04
2016-12-28T05:36:56.803Z,1037
2016-12-28T05:37:37.386Z,1037.07
2016-12-28T05:38:17.956Z,1037.05
2016-12-28T05:38:58.528Z,1037.06
2016-12-28T05:39:39.104Z,1037.06
2016-12-28T05:40:19.686Z,1037.02
2016-12-28T05:41:00.258Z,1037.08
2016-12-28T05:41:40.832Z,1037.09
2016-12-28T05:42:21.387Z,1037.09
2016-12-28T05:43:01.978Z,1037.1
2016-12-28T05:43:42.552Z,1037.14
2016-12-28T05:44:23.120Z,1037.15
2016-12-28T05:45:03.691Z,1037.18
2016-12-28T05:45:44.272Z,1037.21
2016-12-28T05:46:24.851Z,1037.2
2016-12-28T05:47:05.418Z,1037.2
2016-12-28T05:47:45.988Z,1037.21
2016-12-28T05:48:26.565Z,1037.24
2016-12-28T05:49:07.147Z,1037.26
2016-12-28T05:49:47.718Z,1037.29
2016-12-28T05:50:28.300Z,1037.29
2016-12-28T05:51:08.853Z,1037.34
2016-12-28T05:51:49.427Z,1037.28
2016-12-28T05:52:30.011Z,1037.31
2016-12-28T05:53:10.586Z,1037.29
2016-12-28T05:53:51.162Z,1037.26
2016-12-28T05:54:31.706Z,1037.28
2016-12-28T05:55:12.288Z,1037.32
2016-12-28T05:55:52.857Z,1037.33
2016-12-28T05:56:33.435Z,1037.32
2016-12-28T05:57:14.008Z,1037.33
2016-12-28T05:57:54.559Z,1037.35
2016-12-28T05:58:35.132Z,1037.33
2016-12-28T05:59:15.718Z,1037.35
2016-12-28T05:59:56.303Z,1037.35
2016-12-28T06:00:36.880Z,1037.36
2016-12-28T06:01:17.458Z,1037.35
2016-12-28T06:01:58.024Z,1037.32
2016-12-28T06:02:38.589Z,1037.38
2016-12-28T06:03:19.168Z,1037.34
2016-12-28T06:03:59.738Z,1037.38
2016-12-28T06:04:40.299Z,1037.34
2016-12-28T06:05:20.878Z,1037.38
2016-12-28T06:06:01.462Z,1037.35
2016-12-28T06:06:42.046Z,1037.37
2016-12-28T06:07:22.616Z,1037.37
2016-12-28T06:08:03.187Z,1037.37
2016-12-28T06:08:43.756Z,1037.39
2016-12-28T06:09:24.329Z,1037.39
2016-12-28T06:10:04.903Z,1037.43
2016-12-28T06:10:45.482Z,1037.43
2016-12-28T06:11:26.064Z,1037.44
2016-12-28T06:12:06.634Z,1037.44
2016-12-28T06:12:47.209Z,1037.45
2016-12-28T06:13:27.803Z,1037.49
2016-12-28T06:14:08.381Z,1037.44
2016-12-28T06:14:48.952Z,1037.43
2016-12-28T06:15:29.520Z,1037.45
2016-12-28T06:16:10.110Z,1037.43
2016-12-28T06:16:50.685Z,1037.4
2016-12-28T06:17:31.259Z,1037.34
2016-12-28T06:18:11.832Z,1037.35
2016-12-28T06:18:52.415Z,1037.42
2016-12-28T06:19:32.990Z,1037.43
2016-12-28T06:20:13.571Z,1037.41
2016-12-28T06:20:54.154Z,1037.44
2016-12-28T06:21:34.728Z,1037.44
2016-12-28T06:22:15.315Z,1037.43
2016-12-28T06:22:55.895Z,1037.4
2016-12-28T06:23:36.472Z,1037.46
2016-12-28T06:24:17.048Z,1037.49
2016-12-28T06:24:57.634Z,1037.5
2016-12-28T06:25:38.214Z,1037.49
2016-12-28T06:26:18.794Z,1037.51
2016-12-28T06:26:59.361Z,1037.51
2016-12-28T06:27:39.962Z,1037.57
2016-12-28T06:28:20.582Z,1037.53
2016-12-28T06:29:01.162Z,1037.55
2016-12-28T06:29:41.784Z,1037.54
2016-12-28T06:30:22.332Z,1037.59
2016-12-28T06:31:02.906Z,1037.58
2016-12-28T06:31:43.488Z,1037.58
2016-12-28T06:32:24.064Z,1037.56
2016-12-28T06:33:04.638Z,1037.55
2016-12-28T06:33:45.218Z,1037.57
2016-12-28T06:34:25.792Z,1037.56
2016-12-28T06:35:06.395Z,1037.56
2016-12-28T06:35:46.978Z,1037.6
2016-12-28T06:36:27.550Z,1037.57
2016-12-28T06:37:08.107Z,1037.56
2016-12-28T06:37:48.671Z,1037.54
2016-12-28T06:38:29.230Z,1037.52
2016-12-28T06:39:09.799Z,1037.53
2016-12-28T06:39:50.376Z,1037.51
2016-12-28T06:40:30.955Z,1037.52
2016-12-28T06:41:11.528Z,1037.54
2016-12-28T06:41:52.111Z,1037.57
2016-12-28T06:42:32.683Z,1037.54
2016-12-28T06:43:13.269Z,1037.55
2016-12-28T06:43:53.830Z,1037.58
2016-12-28T06:44:34.406Z,1037.58
2016-12-28T06:45:14.982Z,1037.56
2016-12-28T06:45:55.557Z,1037.54
2016-12-28T06:46:36.143Z,1037.57
2016-12-28T06:47:16.715Z,1037.53
2016-12-28T06:47:57.293Z,1037.54
2016-12-28T06:48:37.872Z,1037.51
2016-12-28T06:49:18.459Z,1037.5
2016-12-28T06:49:59.027Z,1037.54
2016-12-28T06:50:39.601Z,1037.52
2016-12-28T06:51:20.165Z,1037.54
2016-12-28T06:52:00.743Z,1037.55
2016-12-28T06:52:41.320Z,1037.54
2016-12-28T06:53:21.894Z,1037.57
2016-12-28T06:54:02.479Z,1037.53
2016-12-28T06:54:43.063Z,1037.53
2016-12-28T06:55:23.626Z,1037.55
2016-12-28T06:56:04.201Z,1037.54
2016-12-28T06:56:44.777Z,1037.48
2016-12-28T06:57:25.349Z,1037.47
2016-12-28T06:58:05.924Z,1037.48
2016-12-28T06:58:46.495Z,1037.49
2016-12-28T06:59:27.069Z,1037.46
2016-12-28T07:00:07.639Z,1037.47
2016-12-28T07:00:48.214Z,1037.48
2016-12-28T07:01:28.784Z,1037.49
2016-12-28T07:02:09.386Z,1037.54
2016-12-28T07:02:49.953Z,1037.49
2016-12-28T07:03:30.529Z,1037.53
2016-12-28T07:04:11.108Z,1037.53
2016-12-28T07:04:51.672Z,1037.55
2016-12-28T07:05:32.248Z,1037.52
2016-12-28T07:06:12.820Z,1037.55
2016-12-28T07:06:53.387Z,1037.52
2016-12-28T07:07:33.965Z,1037.47
2016-12-28T07:08:14.550Z,1037.43
2016-12-28T07:08:55.131Z,1037.45
2016-12-28T07:09:35.703Z,1037.48
2016-12-28T07:10:16.276Z,1037.47
2016-12-28T07:10:56.852Z,1037.46
2016-12-28T07:11:37.416Z,1037.46
2016-12-28T07:12:17.993Z,1037.45
2016-12-28T07:12:58.575Z,1037.47
2016-12-28T07:13:39.156Z,1037.43
2016-12-28T07:14:19.729Z,1037.39
2016-12-28T07:15:00.304Z,1037.38
2016-12-28T07:15:40.886Z,1037.38
2016-12-28T07:16:21.461Z,1037.41
2016-12-28T07:17:02.023Z,1037.45
2016-12-28T07:17:42.601Z,1037.44
2016-12-28T07:18:23.170Z,1037.49
2016-12-28T07:19:03.738Z,1037.5
2016-12-28T07:19:44.316Z,1037.55
2016-12-28T07:20:24.887Z,1037.52
2016-12-28T07:21:05.464Z,1037.55
2016-12-28T07:21:46.047Z,1037.54
2016-12-28T07:22:26.619Z,1037.54
2016-12-28T07:23:07.201Z,1037.56
2016-12-28T07:23:47.773Z,1037.59
2016-12-28T07:24:28.350Z,1037.57
2016-12-28T07:25:08.958Z,1037.6
2016-12-28T07:25:49.533Z,1037.57
2016-12-28T07:26:30.103Z,1037.6
2016-12-28T07:27:10.678Z,1037.58
2016-12-28T07:27:51.253Z,1037.6
2016-12-28T07:28:31.826Z,1037.62
2016-12-28T07:29:12.402Z,1037.58
2016-12-28T07:29:52.976Z,1037.6
2016-12-28T07:30:33.550Z,1037.62
2016-12-28T07:31:14.119Z,1037.65
2016-12-28T07:31:54.699Z,1037.65
2016-12-28T07:32:35.261Z,1037.66
2016-12-28T07:33:15.813Z,1037.69
2016-12-28T07:33:56.388Z,1037.66
2016-12-28T07:34:36.951Z,1037.72
2016-12-28T07:35:17.523Z,1037.73
2016-12-28T07:35:58.088Z,1037.75
2016-12-28T07:36:38.695Z,1037.77
2016-12-28T07:37:19.261Z,1037.77
2016-12-28T07:37:59.834Z,1037.81
2016-12-28T07:38:40.410Z,1037.85
2016-12-28T07:39:20.985Z,1037.85
2016-12-28T07:40:01.556Z,1037.88
2016-12-28T07:40:42.139Z,1037.84
2016-12-28T07:41:22.706Z,1037.91
2016-12-28T07:42:03.283Z,1037.85
2016-12-28T07:42:43.849Z,1037.89
2016-12-28T07:43:24.422Z,1037.89
2016-12-28T07:44:04.995Z,1037.82
2016-12-28T07:44:45.563Z,1037.81
2016-12-28T07:45:26.140Z,1037.79
2016-12-28T07:46:06.723Z,1037.77
2016-12-28T07:46:47.291Z,1037.76
2016-12-28T07:47:27.863Z,1037.74
2016-12-28T07:48:08.436Z,1037.7
2016-12-28T07:48:49.005Z,1037.75
2016-12-28T07:49:29.572Z,1037.69
2016-12-28T07:50:10.147Z,1037.76
2016-12-28T07:50:50.725Z,1037.77
2016-12-28T07:51:31.309Z,1037.78
2016-12-28T07:52:11.890Z,1037.77
2016-12-28T07:52:52.450Z,1037.76
2016-12-28T07:53:33.027Z,1037.72
2016-12-28T07:54:13.601Z,1037.74
2016-12-28T07:54:54.185Z,1037.7
2016-12-28T07:55:34.754Z,1037.7
2016-12-28T07:56:15.325Z,1037.7
2016-12-28T07:56:55.897Z,1037.73
2016-12-28T07:57:36.471Z,1037.64
2016-12-28T07:58:17.042Z,1037.62
2016-12-28T07:58:57.634Z,1037.65
2016-12-28T07:59:38.204Z,1037.61
2016-12-28T08:00:18.778Z,1037.56
2016-12-28T08:00:59.343Z,1037.57
2016-12-28T08:01:39.921Z,1037.57
2016-12-28T08:02:20.502Z,1037.55
2016-12-28T08:03:01.075Z,1037.56
2016-12-28T08:03:41.644Z,1037.61
2016-12-28T08:04:22.222Z,1037.62
2016-12-28T08:07:03.191Z,1037.73
2016-12-28T08:07:43.765Z,1037.75
2016-12-28T08:08:24.339Z,1037.77
2016-12-28T08:09:04.914Z,1037.83
2016-12-28T08:09:45.494Z,1037.79
2016-12-28T08:10:26.070Z,1037.84
2016-12-28T08:11:06.654Z,1037.86
2016-12-28T08:11:47.226Z,1037.89
2016-12-28T08:12:27.802Z,1037.94
2016-12-28T08:13:08.694Z,1037.97
2016-12-28T08:13:49.264Z,1037.96
2016-12-28T08:14:29.840Z,1038